Rocky Ridge, Utah
Current Conditions -  °F | °C
As of 1:35 AM on Sunday 23 Nov 2014 (Local Time) from KPVU Reporting Station
Broken Clouds Broken Clouds  
Wind Chill: 31°   Ceiling: 10000
Heat Index: 36°   Visibility: 10mi
Dew Point: 32°   Wind: 6mph
Humidity: 87%   Direction: 350°N
Pressure: 29.98"   Gusts: NA
Location:  39.852°N, 111.839°W
Report Text: KPVU 230835Z 35005KT 10SM FEW025 SCT040 BKN100 02/00 A2998 RMK AO1
Loading
Personal Weather Stations






























Interactive Weather Map New forecast layout! Learn more

10-Day Weather Forecast

Advertisements
Track Severe Weather on mobile